sensor_id;sensor_type;location;lat;lon;timestamp;pressure;altitude;pressure_sealevel;temperature;humidity
69351;BME280;57106;51.446;-2.606;2023-07-30T00:01:42;100863.82;;;16.91;77.38
69351;BME280;57106;51.446;-2.606;2023-07-30T00:04:08;100862.66;;;16.88;78.53
69351;BME280;57106;51.446;-2.606;2023-07-30T00:06:33;100858.11;;;16.64;78.81
69351;BME280;57106;51.446;-2.606;2023-07-30T00:08:58;100864.06;;;16.48;80.24
69351;BME280;57106;51.446;-2.606;2023-07-30T00:11:24;100860.43;;;16.58;80.38
69351;BME280;57106;51.446;-2.606;2023-07-30T00:13:50;100858.32;;;16.87;79.81
69351;BME280;57106;51.446;-2.606;2023-07-30T00:16:15;100857.77;;;17.04;78.60
69351;BME280;57106;51.446;-2.606;2023-07-30T00:18:40;100860.30;;;16.98;79.06
69351;BME280;57106;51.446;-2.606;2023-07-30T00:21:06;100858.59;;;17.08;78.76
69351;BME280;57106;51.446;-2.606;2023-07-30T00:23:31;100853.05;;;17.06;78.48
69351;BME280;57106;51.446;-2.606;2023-07-30T00:25:56;100858.12;;;16.84;78.82
69351;BME280;57106;51.446;-2.606;2023-07-30T00:28:22;100862.92;;;16.68;79.59
69351;BME280;57106;51.446;-2.606;2023-07-30T00:35:38;100864.12;;;16.62;80.17
69351;BME280;57106;51.446;-2.606;2023-07-30T00:38:05;100869.03;;;16.84;79.39
69351;BME280;57106;51.446;-2.606;2023-07-30T00:40:30;100871.03;;;16.94;79.50
69351;BME280;57106;51.446;-2.606;2023-07-30T00:42:55;100873.26;;;16.92;79.04
69351;BME280;57106;51.446;-2.606;2023-07-30T00:45:21;100871.66;;;16.91;79.31
69351;BME280;57106;51.446;-2.606;2023-07-30T00:47:47;100871.03;;;16.91;78.56
69351;BME280;57106;51.446;-2.606;2023-07-30T00:50:13;100872.95;;;16.78;78.48
69351;BME280;57106;51.446;-2.606;2023-07-30T00:52:37;100868.19;;;16.66;77.38
69351;BME280;57106;51.446;-2.606;2023-07-30T00:55:03;100874.02;;;16.79;77.62
69351;BME280;57106;51.446;-2.606;2023-07-30T00:57:28;100876.57;;;16.73;78.38
69351;BME280;57106;51.446;-2.606;2023-07-30T00:59:53;100877.69;;;16.77;77.63
69351;BME280;57106;51.446;-2.606;2023-07-30T01:02:19;100878.08;;;16.68;77.22
69351;BME280;57106;51.446;-2.606;2023-07-30T01:04:44;100870.29;;;16.62;77.46
69351;BME280;57106;51.446;-2.606;2023-07-30T01:07:10;100870.65;;;16.71;76.73
69351;BME280;57106;51.446;-2.606;2023-07-30T01:09:35;100866.52;;;16.85;76.63
69351;BME280;57106;51.446;-2.606;2023-07-30T01:12:02;100865.26;;;16.80;76.32
69351;BME280;57106;51.446;-2.606;2023-07-30T01:14:26;100864.71;;;16.98;75.89
69351;BME280;57106;51.446;-2.606;2023-07-30T01:16:52;100861.99;;;16.95;75.52
69351;BME280;57106;51.446;-2.606;2023-07-30T01:19:17;100869.61;;;16.89;75.55
69351;BME280;57106;51.446;-2.606;2023-07-30T01:21:42;100864.97;;;17.06;74.66
69351;BME280;57106;51.446;-2.606;2023-07-30T01:24:08;100870.72;;;16.93;75.81
69351;BME280;57106;51.446;-2.606;2023-07-30T01:26:38;100873.07;;;17.09;76.01
69351;BME280;57106;51.446;-2.606;2023-07-30T01:31:26;100877.03;;;17.03;75.80
69351;BME280;57106;51.446;-2.606;2023-07-30T01:33:52;100869.71;;;17.15;75.84
69351;BME280;57106;51.446;-2.606;2023-07-30T01:36:16;100870.81;;;17.04;75.60
69351;BME280;57106;51.446;-2.606;2023-07-30T01:38:41;100873.82;;;16.84;75.48
69351;BME280;57106;51.446;-2.606;2023-07-30T01:41:06;100876.03;;;16.92;76.15
69351;BME280;57106;51.446;-2.606;2023-07-30T01:43:31;100874.77;;;16.87;75.27
69351;BME280;57106;51.446;-2.606;2023-07-30T01:45:57;100874.13;;;16.97;75.48
69351;BME280;57106;51.446;-2.606;2023-07-30T01:48:22;100884.51;;;16.91;75.44
69351;BME280;57106;51.446;-2.606;2023-07-30T02:00:29;100881.39;;;17.22;74.69
69351;BME280;57106;51.446;-2.606;2023-07-30T02:02:55;100878.69;;;17.13;75.42
69351;BME280;57106;51.446;-2.606;2023-07-30T02:05:20;100881.19;;;17.20;74.73
69351;BME280;57106;51.446;-2.606;2023-07-30T02:12:36;100883.23;;;17.06;75.44
69351;BME280;57106;51.446;-2.606;2023-07-30T02:17:27;100885.99;;;16.99;75.58
69351;BME280;57106;51.446;-2.606;2023-07-30T02:19:53;100888.36;;;16.87;76.59
69351;BME280;57106;51.446;-2.606;2023-07-30T02:22:18;100877.86;;;16.85;76.58
69351;BME280;57106;51.446;-2.606;2023-07-30T02:24:43;100875.19;;;16.94;76.12
69351;BME280;57106;51.446;-2.606;2023-07-30T02:27:09;100881.19;;;16.88;76.69
69351;BME280;57106;51.446;-2.606;2023-07-30T02:29:34;100881.57;;;17.07;76.32
69351;BME280;57106;51.446;-2.606;2023-07-30T02:32:00;100883.01;;;17.07;76.08
69351;BME280;57106;51.446;-2.606;2023-07-30T02:34:26;100883.41;;;17.07;76.32
69351;BME280;57106;51.446;-2.606;2023-07-30T02:36:51;100880.93;;;17.03;76.30
69351;BME280;57106;51.446;-2.606;2023-07-30T02:39:16;100875.41;;;17.05;76.16
69351;BME280;57106;51.446;-2.606;2023-07-30T02:41:42;100878.51;;;16.96;76.41
69351;BME280;57106;51.446;-2.606;2023-07-30T02:44:08;100878.97;;;16.82;76.80
69351;BME280;57106;51.446;-2.606;2023-07-30T02:46:33;100878.82;;;16.97;76.17
69351;BME280;57106;51.446;-2.606;2023-07-30T02:48:58;100873.83;;;16.98;75.55
69351;BME280;57106;51.446;-2.606;2023-07-30T02:51:23;100869.45;;;16.85;75.66
69351;BME280;57106;51.446;-2.606;2023-07-30T02:53:52;100871.79;;;16.94;75.65
69351;BME280;57106;51.446;-2.606;2023-07-30T02:56:14;100869.16;;;16.87;75.52
69351;BME280;57106;51.446;-2.606;2023-07-30T02:58:40;100872.04;;;16.88;75.79
69351;BME280;57106;51.446;-2.606;2023-07-30T03:01:06;100876.77;;;16.84;75.37
69351;BME280;57106;51.446;-2.606;2023-07-30T03:03:31;100877.16;;;16.97;75.41
69351;BME280;57106;51.446;-2.606;2023-07-30T03:05:56;100880.62;;;16.84;75.74
69351;BME280;57106;51.446;-2.606;2023-07-30T03:08:22;100875.19;;;16.91;75.45
69351;BME280;57106;51.446;-2.606;2023-07-30T03:10:47;100880.46;;;16.77;75.78
69351;BME280;57106;51.446;-2.606;2023-07-30T03:13:12;100885.13;;;16.84;75.93
69351;BME280;57106;51.446;-2.606;2023-07-30T03:15:38;100877.30;;;16.82;76.33
69351;BME280;57106;51.446;-2.606;2023-07-30T03:18:03;100875.05;;;17.02;75.96
69351;BME280;57106;51.446;-2.606;2023-07-30T03:20:29;100884.26;;;16.77;76.64
69351;BME280;57106;51.446;-2.606;2023-07-30T03:22:54;100881.37;;;16.83;76.80
69351;BME280;57106;51.446;-2.606;2023-07-30T03:25:20;100880.84;;;16.91;76.33
69351;BME280;57106;51.446;-2.606;2023-07-30T03:27:45;100884.51;;;17.02;75.93
69351;BME280;57106;51.446;-2.606;2023-07-30T03:30:11;100890.47;;;16.97;76.12
69351;BME280;57106;51.446;-2.606;2023-07-30T03:32:36;100894.89;;;16.96;76.13
69351;BME280;57106;51.446;-2.606;2023-07-30T03:35:01;100892.31;;;17.17;75.18
69351;BME280;57106;51.446;-2.606;2023-07-30T03:37:27;100891.92;;;17.02;75.42
69351;BME280;57106;51.446;-2.606;2023-07-30T03:39:52;100897.69;;;17.08;74.97
69351;BME280;57106;51.446;-2.606;2023-07-30T03:42:17;100897.13;;;17.23;74.52
69351;BME280;57106;51.446;-2.606;2023-07-30T03:44:43;100906.59;;;17.08;74.51
69351;BME280;57106;51.446;-2.606;2023-07-30T03:47:09;100911.02;;;17.12;74.34
69351;BME280;57106;51.446;-2.606;2023-07-30T03:49:34;100909.52;;;17.21;73.88
69351;BME280;57106;51.446;-2.606;2023-07-30T03:51:59;100909.41;;;16.93;74.22
69351;BME280;57106;51.446;-2.606;2023-07-30T03:54:25;100914.87;;;16.90;74.66
69351;BME280;57106;51.446;-2.606;2023-07-30T03:56:50;100916.27;;;16.99;74.45
69351;BME280;57106;51.446;-2.606;2023-07-30T03:59:15;100920.82;;;17.15;74.09
69351;BME280;57106;51.446;-2.606;2023-07-30T04:01:41;100924.27;;;17.30;73.61
69351;BME280;57106;51.446;-2.606;2023-07-30T04:04:07;100921.34;;;17.37;73.41
69351;BME280;57106;51.446;-2.606;2023-07-30T04:06:32;100919.80;;;17.33;73.32
69351;BME280;57106;51.446;-2.606;2023-07-30T04:08:58;100926.75;;;17.24;73.19
69351;BME280;57106;51.446;-2.606;2023-07-30T04:11:23;100940.29;;;17.27;73.01
69351;BME280;57106;51.446;-2.606;2023-07-30T04:13:48;100932.73;;;17.32;72.40
69351;BME280;57106;51.446;-2.606;2023-07-30T04:16:14;100933.92;;;17.19;72.24
69351;BME280;57106;51.446;-2.606;2023-07-30T04:18:39;100928.90;;;17.11;71.82
69351;BME280;57106;51.446;-2.606;2023-07-30T04:21:05;100928.98;;;16.97;72.07
69351;BME280;57106;51.446;-2.606;2023-07-30T04:23:30;100929.13;;;17.05;72.03
69351;BME280;57106;51.446;-2.606;2023-07-30T04:25:56;100930.78;;;17.03;72.15
69351;BME280;57106;51.446;-2.606;2023-07-30T04:28:21;100930.81;;;17.10;72.03
69351;BME280;57106;51.446;-2.606;2023-07-30T04:30:46;100936.55;;;17.06;72.00
69351;BME280;57106;51.446;-2.606;2023-07-30T04:33:12;100938.55;;;17.01;72.15
69351;BME280;57106;51.446;-2.606;2023-07-30T04:35:37;100933.46;;;16.83;72.25
69351;BME280;57106;51.446;-2.606;2023-07-30T04:38:03;100937.30;;;16.86;72.40
69351;BME280;57106;51.446;-2.606;2023-07-30T04:40:29;100934.85;;;17.14;71.66
69351;BME280;57106;51.446;-2.606;2023-07-30T04:42:54;100932.89;;;17.05;72.20
69351;BME280;57106;51.446;-2.606;2023-07-30T04:45:19;100935.47;;;16.87;73.01
69351;BME280;57106;51.446;-2.606;2023-07-30T04:47:44;100941.00;;;16.99;73.16
69351;BME280;57106;51.446;-2.606;2023-07-30T04:50:10;100952.43;;;17.06;73.22
69351;BME280;57106;51.446;-2.606;2023-07-30T04:52:35;100959.01;;;17.00;74.15
69351;BME280;57106;51.446;-2.606;2023-07-30T04:55:01;100964.68;;;17.02;74.45
69351;BME280;57106;51.446;-2.606;2023-07-30T04:57:26;100959.42;;;17.01;73.39
69351;BME280;57106;51.446;-2.606;2023-07-30T04:59:52;100954.25;;;16.92;71.87
69351;BME280;57106;51.446;-2.606;2023-07-30T05:02:17;100951.59;;;16.91;72.01
69351;BME280;57106;51.446;-2.606;2023-07-30T05:04:43;100955.86;;;16.87;71.31
69351;BME280;57106;51.446;-2.606;2023-07-30T05:07:09;100955.55;;;16.89;71.63
69351;BME280;57106;51.446;-2.606;2023-07-30T05:09:33;100960.60;;;17.00;71.34
69351;BME280;57106;51.446;-2.606;2023-07-30T05:11:59;100956.42;;;16.98;71.76
69351;BME280;57106;51.446;-2.606;2023-07-30T05:14:24;100960.41;;;17.21;71.16
69351;BME280;57106;51.446;-2.606;2023-07-30T05:16:50;100959.05;;;17.05;71.95
69351;BME280;57106;51.446;-2.606;2023-07-30T05:19:16;100956.68;;;17.10;71.98
69351;BME280;57106;51.446;-2.606;2023-07-30T05:21:41;100966.65;;;17.31;72.00
69351;BME280;57106;51.446;-2.606;2023-07-30T05:24:07;100966.19;;;17.40;71.80
69351;BME280;57106;51.446;-2.606;2023-07-30T05:26:31;100973.18;;;17.20;72.07
69351;BME280;57106;51.446;-2.606;2023-07-30T05:29:01;100965.26;;;17.31;71.56
69351;BME280;57106;51.446;-2.606;2023-07-30T05:31:22;100974.29;;;17.08;72.51
69351;BME280;57106;51.446;-2.606;2023-07-30T05:33:48;100971.02;;;17.20;71.43
69351;BME280;57106;51.446;-2.606;2023-07-30T05:36:13;100974.78;;;17.27;71.06
69351;BME280;57106;51.446;-2.606;2023-07-30T05:38:39;100971.95;;;17.23;70.79
69351;BME280;57106;51.446;-2.606;2023-07-30T05:41:05;100974.49;;;17.28;70.68
69351;BME280;57106;51.446;-2.606;2023-07-30T05:43:29;100976.21;;;17.44;70.23
69351;BME280;57106;51.446;-2.606;2023-07-30T05:45:55;100979.94;;;17.37;70.48
69351;BME280;57106;51.446;-2.606;2023-07-30T05:48:20;100979.01;;;17.43;72.02
69351;BME280;57106;51.446;-2.606;2023-07-30T05:50:46;100981.28;;;17.23;73.97
69351;BME280;57106;51.446;-2.606;2023-07-30T05:53:11;100993.77;;;16.88;74.72
69351;BME280;57106;51.446;-2.606;2023-07-30T05:55:36;100994.16;;;16.52;75.80
69351;BME280;57106;51.446;-2.606;2023-07-30T05:58:02;100991.50;;;16.73;75.29
69351;BME280;57106;51.446;-2.606;2023-07-30T06:00:28;100987.92;;;16.99;74.31
69351;BME280;57106;51.446;-2.606;2023-07-30T06:02:53;100993.26;;;16.99;73.96
69351;BME280;57106;51.446;-2.606;2023-07-30T06:05:18;100992.72;;;16.79;73.83
69351;BME280;57106;51.446;-2.606;2023-07-30T06:07:44;100992.73;;;16.97;73.90
69351;BME280;57106;51.446;-2.606;2023-07-30T06:10:09;100995.34;;;16.91;73.73
69351;BME280;57106;51.446;-2.606;2023-07-30T06:12:35;100990.32;;;16.97;73.21
69351;BME280;57106;51.446;-2.606;2023-07-30T06:15:00;100988.55;;;17.26;72.45
69351;BME280;57106;51.446;-2.606;2023-07-30T06:17:25;100992.64;;;17.30;72.17
69351;BME280;57106;51.446;-2.606;2023-07-30T06:19:51;100999.37;;;17.50;71.84
69351;BME280;57106;51.446;-2.606;2023-07-30T06:22:16;100993.39;;;17.78;71.00
69351;BME280;57106;51.446;-2.606;2023-07-30T06:24:42;100994.29;;;17.92;70.00
69351;BME280;57106;51.446;-2.606;2023-07-30T06:27:08;100996.87;;;18.05;69.67
69351;BME280;57106;51.446;-2.606;2023-07-30T06:32:01;100988.09;;;18.26;68.64
69351;BME280;57106;51.446;-2.606;2023-07-30T06:34:23;100991.13;;;18.39;68.89
69351;BME280;57106;51.446;-2.606;2023-07-30T06:36:49;100986.09;;;18.63;67.59
69351;BME280;57106;51.446;-2.606;2023-07-30T06:39:14;100983.58;;;18.53;67.17
69351;BME280;57106;51.446;-2.606;2023-07-30T06:41:40;100990.62;;;18.32;68.38
69351;BME280;57106;51.446;-2.606;2023-07-30T06:44:05;100994.71;;;18.20;68.54
69351;BME280;57106;51.446;-2.606;2023-07-30T06:46:35;100988.12;;;18.21;68.20
69351;BME280;57106;51.446;-2.606;2023-07-30T06:48:56;100990.71;;;18.35;68.43
69351;BME280;57106;51.446;-2.606;2023-07-30T06:51:24;100994.69;;;18.37;67.55
69351;BME280;57106;51.446;-2.606;2023-07-30T06:53:46;101000.89;;;18.67;66.90
69351;BME280;57106;51.446;-2.606;2023-07-30T06:56:12;101007.59;;;18.47;67.15
69351;BME280;57106;51.446;-2.606;2023-07-30T06:58:37;100997.94;;;18.48;66.58
69351;BME280;57106;51.446;-2.606;2023-07-30T07:01:02;101002.36;;;18.40;66.90
69351;BME280;57106;51.446;-2.606;2023-07-30T07:03:28;101002.17;;;18.17;67.71
69351;BME280;57106;51.446;-2.606;2023-07-30T07:05:53;101001.08;;;18.50;67.55
69351;BME280;57106;51.446;-2.606;2023-07-30T07:08:19;101008.40;;;18.31;67.67
69351;BME280;57106;51.446;-2.606;2023-07-30T07:10:50;101010.76;;;18.57;66.50
69351;BME280;57106;51.446;-2.606;2023-07-30T07:13:14;101009.55;;;18.63;66.62
69351;BME280;57106;51.446;-2.606;2023-07-30T07:15:35;101006.20;;;18.76;66.62
69351;BME280;57106;51.446;-2.606;2023-07-30T07:18:00;101011.50;;;18.81;66.93
69351;BME280;57106;51.446;-2.606;2023-07-30T07:20:26;101017.82;;;19.00;65.93
69351;BME280;57106;51.446;-2.606;2023-07-30T07:22:51;101017.77;;;18.88;66.00
69351;BME280;57106;51.446;-2.606;2023-07-30T07:25:16;101018.19;;;19.05;65.95
69351;BME280;57106;51.446;-2.606;2023-07-30T07:27:42;101018.37;;;19.11;65.74
69351;BME280;57106;51.446;-2.606;2023-07-30T07:30:08;101022.43;;;19.35;64.39
69351;BME280;57106;51.446;-2.606;2023-07-30T07:32:32;101019.43;;;19.08;64.47
69351;BME280;57106;51.446;-2.606;2023-07-30T07:34:58;101023.26;;;19.11;64.65
69351;BME280;57106;51.446;-2.606;2023-07-30T07:37:23;101015.72;;;19.10;64.76
69351;BME280;57106;51.446;-2.606;2023-07-30T07:39:49;101021.61;;;19.32;64.75
69351;BME280;57106;51.446;-2.606;2023-07-30T07:42:14;101017.09;;;19.57;64.50
69351;BME280;57106;51.446;-2.606;2023-07-30T07:44:39;101019.55;;;19.53;64.15
69351;BME280;57106;51.446;-2.606;2023-07-30T07:47:06;101021.98;;;19.41;64.29
69351;BME280;57106;51.446;-2.606;2023-07-30T07:51:56;101029.74;;;18.93;65.40
69351;BME280;57106;51.446;-2.606;2023-07-30T07:54:21;101034.00;;;18.89;65.67
69351;BME280;57106;51.446;-2.606;2023-07-30T07:56:46;101042.35;;;18.83;66.04
69351;BME280;57106;51.446;-2.606;2023-07-30T07:59:11;101046.70;;;18.76;65.98
69351;BME280;57106;51.446;-2.606;2023-07-30T08:01:37;101039.03;;;18.54;67.21
69351;BME280;57106;51.446;-2.606;2023-07-30T08:04:02;101034.38;;;18.53;67.65
69351;BME280;57106;51.446;-2.606;2023-07-30T08:06:28;101037.52;;;18.16;68.45
69351;BME280;57106;51.446;-2.606;2023-07-30T08:08:53;101037.53;;;18.36;68.54
69351;BME280;57106;51.446;-2.606;2023-07-30T08:11:18;101038.33;;;18.24;68.50
69351;BME280;57106;51.446;-2.606;2023-07-30T08:13:44;101037.45;;;18.22;69.23
69351;BME280;57106;51.446;-2.606;2023-07-30T08:16:09;101047.27;;;18.01;71.03
69351;BME280;57106;51.446;-2.606;2023-07-30T08:18:35;101046.77;;;18.13;71.91
69351;BME280;57106;51.446;-2.606;2023-07-30T08:21:00;101052.91;;;18.06;72.10
69351;BME280;57106;51.446;-2.606;2023-07-30T08:23:25;101043.79;;;17.97;73.28
69351;BME280;57106;51.446;-2.606;2023-07-30T08:25:51;101041.99;;;17.82;74.27
69351;BME280;57106;51.446;-2.606;2023-07-30T08:28:16;101037.70;;;18.12;74.19
69351;BME280;57106;51.446;-2.606;2023-07-30T08:30:41;101032.84;;;18.33;73.51
69351;BME280;57106;51.446;-2.606;2023-07-30T08:33:07;101031.93;;;18.53;72.56
69351;BME280;57106;51.446;-2.606;2023-07-30T08:35:32;101034.22;;;18.53;71.52
69351;BME280;57106;51.446;-2.606;2023-07-30T08:37:58;101035.01;;;18.60;72.03
69351;BME280;57106;51.446;-2.606;2023-07-30T08:40:24;101036.37;;;18.57;72.14
69351;BME280;57106;51.446;-2.606;2023-07-30T08:42:49;101031.85;;;18.53;73.54
69351;BME280;57106;51.446;-2.606;2023-07-30T08:45:15;101033.74;;;18.64;73.55
69351;BME280;57106;51.446;-2.606;2023-07-30T08:47:40;101030.77;;;19.10;73.50
69351;BME280;57106;51.446;-2.606;2023-07-30T08:50:06;101029.11;;;19.15;72.58
69351;BME280;57106;51.446;-2.606;2023-07-30T08:52:30;101026.21;;;19.22;71.04
69351;BME280;57106;51.446;-2.606;2023-07-30T08:54:56;101026.30;;;19.33;71.19
69351;BME280;57106;51.446;-2.606;2023-07-30T08:57:21;101024.20;;;19.37;70.21
69351;BME280;57106;51.446;-2.606;2023-07-30T08:59:49;101021.90;;;19.37;70.90
69351;BME280;57106;51.446;-2.606;2023-07-30T09:02:17;101030.85;;;19.14;71.23
69351;BME280;57106;51.446;-2.606;2023-07-30T09:04:37;101025.34;;;19.04;72.11
69351;BME280;57106;51.446;-2.606;2023-07-30T09:07:02;101031.16;;;19.19;72.17
69351;BME280;57106;51.446;-2.606;2023-07-30T09:09:27;101031.27;;;18.87;73.23
69351;BME280;57106;51.446;-2.606;2023-07-30T09:11:53;101026.55;;;18.74;73.23
69351;BME280;57106;51.446;-2.606;2023-07-30T09:14:20;101028.78;;;18.75;72.75
69351;BME280;57106;51.446;-2.606;2023-07-30T09:16:44;101026.94;;;18.40;73.38
69351;BME280;57106;51.446;-2.606;2023-07-30T09:19:09;101022.55;;;18.53;73.16
69351;BME280;57106;51.446;-2.606;2023-07-30T09:21:35;101025.29;;;18.68;73.01
69351;BME280;57106;51.446;-2.606;2023-07-30T09:24:02;101026.71;;;18.94;72.50
69351;BME280;57106;51.446;-2.606;2023-07-30T09:26:25;101023.96;;;18.98;72.24
69351;BME280;57106;51.446;-2.606;2023-07-30T09:28:50;101029.15;;;19.11;72.10
69351;BME280;57106;51.446;-2.606;2023-07-30T09:33:41;101030.64;;;19.25;71.54
69351;BME280;57106;51.446;-2.606;2023-07-30T09:38:36;101020.11;;;19.84;69.78
69351;BME280;57106;51.446;-2.606;2023-07-30T09:41:01;101021.13;;;19.78;70.77
69351;BME280;57106;51.446;-2.606;2023-07-30T09:43:33;101022.61;;;19.40;71.57
69351;BME280;57106;51.446;-2.606;2023-07-30T09:45:48;101022.20;;;19.72;70.74
69351;BME280;57106;51.446;-2.606;2023-07-30T10:02:46;101017.34;;;19.93;67.88
69351;BME280;57106;51.446;-2.606;2023-07-30T10:05:14;101025.83;;;20.17;67.14
69351;BME280;57106;51.446;-2.606;2023-07-30T10:07:36;101019.45;;;19.56;68.81
69351;BME280;57106;51.446;-2.606;2023-07-30T10:10:05;101018.59;;;19.64;69.11
69351;BME280;57106;51.446;-2.606;2023-07-30T10:17:21;101016.53;;;19.94;68.85
69351;BME280;57106;51.446;-2.606;2023-07-30T10:19:47;101017.98;;;20.05;67.97
69351;BME280;57106;51.446;-2.606;2023-07-30T10:22:20;101016.82;;;20.12;68.12
69351;BME280;57106;51.446;-2.606;2023-07-30T10:24:34;101016.32;;;20.21;67.70
69351;BME280;57106;51.446;-2.606;2023-07-30T10:27:05;101015.24;;;20.32;67.26
69351;BME280;57106;51.446;-2.606;2023-07-30T10:31:52;101020.62;;;20.57;66.92
69351;BME280;57106;51.446;-2.606;2023-07-30T10:34:15;101021.89;;;20.51;66.66
69351;BME280;57106;51.446;-2.606;2023-07-30T10:36:42;101022.53;;;20.61;67.15
69351;BME280;57106;51.446;-2.606;2023-07-30T10:39:12;101025.72;;;20.19;68.73
69351;BME280;57106;51.446;-2.606;2023-07-30T10:41:31;101026.24;;;20.23;69.42
69351;BME280;57106;51.446;-2.606;2023-07-30T10:43:56;101024.51;;;20.25;70.75
69351;BME280;57106;51.446;-2.606;2023-07-30T10:46:22;101022.32;;;20.29;70.92
69351;BME280;57106;51.446;-2.606;2023-07-30T10:48:48;101020.53;;;20.42;70.75
69351;BME280;57106;51.446;-2.606;2023-07-30T10:51:13;101024.30;;;20.18;72.14
69351;BME280;57106;51.446;-2.606;2023-07-30T10:53:38;101023.23;;;20.02;74.42
69351;BME280;57106;51.446;-2.606;2023-07-30T10:56:04;101022.39;;;19.84;74.57
69351;BME280;57106;51.446;-2.606;2023-07-30T10:58:28;101020.63;;;19.94;74.99
69351;BME280;57106;51.446;-2.606;2023-07-30T11:00:54;101021.04;;;19.68;75.78
69351;BME280;57106;51.446;-2.606;2023-07-30T11:03:19;101018.81;;;19.65;76.44
69351;BME280;57106;51.446;-2.606;2023-07-30T11:05:47;101021.65;;;19.62;76.93
69351;BME280;57106;51.446;-2.606;2023-07-30T11:08:10;101019.06;;;19.95;76.78
69351;BME280;57106;51.446;-2.606;2023-07-30T11:10:42;101023.86;;;20.01;75.79
69351;BME280;57106;51.446;-2.606;2023-07-30T11:13:02;101023.21;;;19.72;77.08
69351;BME280;57106;51.446;-2.606;2023-07-30T11:15:26;101019.14;;;19.56;77.74
69351;BME280;57106;51.446;-2.606;2023-07-30T11:17:52;101021.06;;;19.74;77.27
69351;BME280;57106;51.446;-2.606;2023-07-30T11:20:23;101019.63;;;19.54;78.70
69351;BME280;57106;51.446;-2.606;2023-07-30T11:22:42;101018.98;;;19.28;79.31
69351;BME280;57106;51.446;-2.606;2023-07-30T11:25:16;101013.42;;;19.45;79.65
69351;BME280;57106;51.446;-2.606;2023-07-30T11:29:58;101015.90;;;19.36;80.00
69351;BME280;57106;51.446;-2.606;2023-07-30T11:32:23;101020.12;;;19.32;80.61
69351;BME280;57106;51.446;-2.606;2023-07-30T11:34:48;101017.99;;;19.24;81.17
69351;BME280;57106;51.446;-2.606;2023-07-30T11:37:14;101012.92;;;19.19;80.49
69351;BME280;57106;51.446;-2.606;2023-07-30T11:39:39;101012.73;;;18.95;82.45
69351;BME280;57106;51.446;-2.606;2023-07-30T11:42:05;101015.70;;;19.15;81.94
69351;BME280;57106;51.446;-2.606;2023-07-30T11:44:31;101015.81;;;19.20;82.07
69351;BME280;57106;51.446;-2.606;2023-07-30T11:46:55;101015.88;;;19.19;82.24
69351;BME280;57106;51.446;-2.606;2023-07-30T11:49:20;101017.38;;;19.05;82.54
69351;BME280;57106;51.446;-2.606;2023-07-30T11:51:46;101015.98;;;19.02;83.18
69351;BME280;57106;51.446;-2.606;2023-07-30T11:54:20;101020.97;;;19.07;83.84
69351;BME280;57106;51.446;-2.606;2023-07-30T11:56:37;101023.99;;;19.09;83.22
69351;BME280;57106;51.446;-2.606;2023-07-30T11:59:07;101021.47;;;19.04;82.89
69351;BME280;57106;51.446;-2.606;2023-07-30T12:01:30;101024.15;;;18.92;83.88
69351;BME280;57106;51.446;-2.606;2023-07-30T12:18:27;101029.19;;;18.95;84.60
69351;BME280;57106;51.446;-2.606;2023-07-30T12:20:52;101026.80;;;19.01;84.12
69351;BME280;57106;51.446;-2.606;2023-07-30T12:30:33;101027.64;;;18.92;86.76
69351;BME280;57106;51.446;-2.606;2023-07-30T12:32:57;101026.85;;;18.89;87.18
69351;BME280;57106;51.446;-2.606;2023-07-30T12:35:23;101028.97;;;18.73;88.00
69351;BME280;57106;51.446;-2.606;2023-07-30T12:37:48;101026.18;;;18.70;88.87
69351;BME280;57106;51.446;-2.606;2023-07-30T12:40:14;101019.20;;;18.69;88.84
69351;BME280;57106;51.446;-2.606;2023-07-30T12:42:39;101024.62;;;18.81;88.57
69351;BME280;57106;51.446;-2.606;2023-07-30T12:45:05;101027.27;;;18.86;88.98
69351;BME280;57106;51.446;-2.606;2023-07-30T12:47:30;101019.18;;;18.87;87.87
69351;BME280;57106;51.446;-2.606;2023-07-30T12:49:55;101014.86;;;18.89;87.95
69351;BME280;57106;51.446;-2.606;2023-07-30T12:52:20;101015.81;;;18.69;87.52
69351;BME280;57106;51.446;-2.606;2023-07-30T12:54:45;101027.20;;;18.90;87.35
69351;BME280;57106;51.446;-2.606;2023-07-30T12:57:11;101026.81;;;18.94;87.17
69351;BME280;57106;51.446;-2.606;2023-07-30T12:59:36;101038.02;;;18.98;86.20
69351;BME280;57106;51.446;-2.606;2023-07-30T13:02:02;101025.48;;;18.97;84.97
69351;BME280;57106;51.446;-2.606;2023-07-30T13:04:27;101036.95;;;19.02;84.30
69351;BME280;57106;51.446;-2.606;2023-07-30T13:06:52;101043.52;;;18.85;86.14
69351;BME280;57106;51.446;-2.606;2023-07-30T13:09:18;101035.89;;;18.70;86.87
69351;BME280;57106;51.446;-2.606;2023-07-30T13:11:43;101043.62;;;18.64;87.75
69351;BME280;57106;51.446;-2.606;2023-07-30T13:14:08;101039.57;;;18.67;86.74
69351;BME280;57106;51.446;-2.606;2023-07-30T13:16:34;101041.14;;;18.69;87.28
69351;BME280;57106;51.446;-2.606;2023-07-30T13:18:59;101047.58;;;18.89;85.47
69351;BME280;57106;51.446;-2.606;2023-07-30T13:21:24;101048.46;;;18.86;85.85
69351;BME280;57106;51.446;-2.606;2023-07-30T13:23:50;101046.32;;;18.82;85.40
69351;BME280;57106;51.446;-2.606;2023-07-30T13:26:16;101059.43;;;18.79;85.78
69351;BME280;57106;51.446;-2.606;2023-07-30T13:28:41;101065.03;;;18.88;85.35
69351;BME280;57106;51.446;-2.606;2023-07-30T13:43:13;101078.03;;;18.44;85.91
69351;BME280;57106;51.446;-2.606;2023-07-30T14:07:27;101093.64;;;18.08;89.65
69351;BME280;57106;51.446;-2.606;2023-07-30T14:09:52;101097.96;;;18.35;88.76
69351;BME280;57106;51.446;-2.606;2023-07-30T14:12:17;101094.45;;;18.35;88.27
69351;BME280;57106;51.446;-2.606;2023-07-30T14:14:43;101090.53;;;18.31;88.20
69351;BME280;57106;51.446;-2.606;2023-07-30T14:17:08;101090.39;;;18.16;88.57
69351;BME280;57106;51.446;-2.606;2023-07-30T14:19:34;101096.73;;;18.18;89.01
69351;BME280;57106;51.446;-2.606;2023-07-30T14:21:59;101090.39;;;18.29;89.02
69351;BME280;57106;51.446;-2.606;2023-07-30T14:24:24;101095.35;;;18.26;88.30